createdAt,value
2023-04-14T00:00:14.209Z,27.91
2023-04-14T00:01:14.240Z,27.90
2023-04-14T00:02:14.304Z,27.92
2023-04-14T00:03:14.400Z,27.92
2023-04-14T00:04:14.367Z,27.91
2023-04-14T00:05:14.375Z,27.91
2023-04-14T00:06:14.275Z,27.91
2023-04-14T00:07:14.264Z,27.90
2023-04-14T00:08:14.271Z,27.90
2023-04-14T00:09:14.317Z,27.91
2023-04-14T00:10:14.282Z,27.90
2023-04-14T00:11:14.293Z,27.91
2023-04-14T00:12:14.289Z,27.90
2023-04-14T00:13:14.292Z,27.91
2023-04-14T00:14:14.295Z,27.91
2023-04-14T00:15:14.288Z,27.93
2023-04-14T00:16:14.302Z,27.94
2023-04-14T00:17:14.337Z,27.92
2023-04-14T00:18:14.304Z,27.93
2023-04-14T00:19:14.296Z,27.93
2023-04-14T00:20:14.302Z,27.91
2023-04-14T00:21:14.304Z,27.91
2023-04-14T00:22:14.307Z,27.93
2023-04-14T00:23:14.306Z,27.94
2023-04-14T00:24:14.321Z,27.93
2023-04-14T00:25:14.313Z,27.95
2023-04-14T00:26:14.313Z,27.94
2023-04-14T00:27:14.326Z,27.91
2023-04-14T00:28:14.362Z,27.93
2023-04-14T00:29:14.379Z,27.93
2023-04-14T00:30:14.389Z,27.95
2023-04-14T00:31:14.435Z,27.95
2023-04-14T00:32:14.439Z,27.95
2023-04-14T00:33:14.461Z,27.94
2023-04-14T00:34:14.503Z,27.95
2023-04-14T00:35:14.500Z,27.94
2023-04-14T00:36:14.562Z,27.94
2023-04-14T00:37:14.548Z,27.96
2023-04-14T00:38:14.574Z,27.96
2023-04-14T00:39:14.607Z,27.96
2023-04-14T00:40:14.648Z,27.95
2023-04-14T00:41:14.654Z,27.97
2023-04-14T00:42:14.684Z,27.96
2023-04-14T00:43:14.688Z,27.95
2023-04-14T00:44:14.704Z,27.96
2023-04-14T00:45:14.734Z,27.94
2023-04-14T00:46:14.783Z,27.95
2023-04-14T00:47:14.799Z,27.95
2023-04-14T00:48:14.796Z,27.95
2023-04-14T00:49:14.840Z,27.92
2023-04-14T00:50:14.832Z,27.94
2023-04-14T00:51:14.870Z,27.95
2023-04-14T00:52:14.881Z,27.97
2023-04-14T00:53:14.921Z,27.97
2023-04-14T00:54:14.952Z,27.97
2023-04-14T00:55:14.986Z,27.98
2023-04-14T00:56:15.013Z,27.95
2023-04-14T00:57:15.037Z,27.97
2023-04-14T00:58:15.072Z,27.97
2023-04-14T00:59:15.090Z,27.98
2023-04-14T01:00:15.121Z,27.96
2023-04-14T01:01:15.209Z,27.99
2023-04-14T01:02:15.253Z,27.96
2023-04-14T01:03:15.260Z,27.96
2023-04-14T01:04:15.275Z,27.98
2023-04-14T01:05:15.565Z,27.96
2023-04-14T01:06:15.275Z,27.95
2023-04-14T01:07:15.302Z,28.00
2023-04-14T01:08:15.342Z,27.98
2023-04-14T01:09:15.348Z,27.97
2023-04-14T01:10:15.386Z,27.96
2023-04-14T01:11:15.409Z,27.97
2023-04-14T01:12:15.445Z,28.00
2023-04-14T01:13:15.467Z,27.98
2023-04-14T01:14:15.494Z,28.01
2023-04-14T01:15:15.522Z,28.00
2023-04-14T01:16:15.610Z,28.02
2023-04-14T01:17:15.597Z,28.01
2023-04-14T01:18:15.630Z,28.01
2023-04-14T01:19:15.656Z,28.01
2023-04-14T01:20:15.678Z,28.00
2023-04-14T01:21:15.717Z,28.00
2023-04-14T01:22:15.754Z,28.00
2023-04-14T01:23:15.788Z,28.00
2023-04-14T01:24:15.822Z,27.99
2023-04-14T01:25:15.844Z,28.01
2023-04-14T01:26:15.879Z,28.01
2023-04-14T01:27:15.897Z,28.01
2023-04-14T01:28:15.949Z,28.00
2023-04-14T01:29:15.968Z,28.00
2023-04-14T01:30:15.994Z,28.02
2023-04-14T01:31:16.042Z,27.99
2023-04-14T01:32:16.069Z,28.01
2023-04-14T01:33:16.098Z,28.00
2023-04-14T01:34:16.215Z,28.02
2023-04-14T01:35:16.156Z,28.01
2023-04-14T01:36:16.209Z,28.00
2023-04-14T01:37:16.222Z,27.99
2023-04-14T01:38:16.249Z,28.01
2023-04-14T01:39:16.285Z,28.01
2023-04-14T01:40:16.310Z,28.01
2023-04-14T01:41:16.355Z,28.01
2023-04-14T01:42:16.393Z,28.01
2023-04-14T01:43:16.395Z,28.00
2023-04-14T01:44:16.454Z,28.01
2023-04-14T01:45:16.479Z,28.03
2023-04-14T01:46:16.542Z,28.02
2023-04-14T01:47:16.542Z,28.01
2023-04-14T01:48:16.554Z,28.02
2023-04-14T01:49:16.611Z,28.03
2023-04-14T01:50:16.623Z,28.02
2023-04-14T01:51:16.696Z,28.02
2023-04-14T01:52:16.679Z,28.01
2023-04-14T01:53:16.686Z,28.03
2023-04-14T01:54:16.712Z,28.02
2023-04-14T01:55:16.744Z,28.04
2023-04-14T01:56:16.780Z,28.03
2023-04-14T01:57:16.775Z,28.03
2023-04-14T01:58:16.822Z,28.02
2023-04-14T01:59:16.848Z,28.01
2023-04-14T02:00:16.870Z,28.02
2023-04-14T02:01:16.962Z,28.01
2023-04-14T02:02:16.944Z,28.04
2023-04-14T02:03:17.021Z,28.03
2023-04-14T02:04:17.057Z,28.02
2023-04-14T02:05:17.015Z,28.02
2023-04-14T02:06:17.152Z,28.03
2023-04-14T02:07:17.069Z,28.03
2023-04-14T02:08:17.079Z,28.02
2023-04-14T02:09:17.111Z,28.03
2023-04-14T02:10:17.151Z,28.05
2023-04-14T02:11:17.181Z,28.00
2023-04-14T02:12:17.216Z,28.04
2023-04-14T02:13:17.230Z,28.03
2023-04-14T02:14:17.263Z,28.04
2023-04-14T02:15:17.302Z,28.04
2023-04-14T02:16:17.370Z,28.02
2023-04-14T02:17:17.378Z,28.02
2023-04-14T02:18:17.398Z,28.01
2023-04-14T02:19:17.432Z,28.03
2023-04-14T02:20:17.462Z,28.04
2023-04-14T02:21:17.487Z,28.03
2023-04-14T02:22:17.502Z,28.02
2023-04-14T02:23:17.541Z,28.05
2023-04-14T02:24:17.577Z,28.03
2023-04-14T02:25:17.583Z,28.02
2023-04-14T02:26:17.609Z,28.02
2023-04-14T02:27:17.647Z,28.04
2023-04-14T02:28:17.664Z,28.03
2023-04-14T02:29:17.681Z,28.05
2023-04-14T02:30:17.723Z,28.03
2023-04-14T02:31:17.879Z,28.04
2023-04-14T02:32:17.769Z,28.05
2023-04-14T02:33:17.778Z,28.03
2023-04-14T02:34:17.805Z,28.07
2023-04-14T02:35:17.835Z,28.04
2023-04-14T02:36:17.875Z,28.04
2023-04-14T02:37:17.900Z,28.05
2023-04-14T02:38:17.937Z,28.04
2023-04-14T02:39:17.973Z,28.04
2023-04-14T02:40:18.008Z,28.07
2023-04-14T02:41:18.023Z,28.05
2023-04-14T02:42:18.058Z,28.05
2023-04-14T02:43:18.092Z,28.05
2023-04-14T02:44:18.136Z,28.03
2023-04-14T02:45:18.154Z,28.05
2023-04-14T02:46:18.246Z,28.05
2023-04-14T02:47:18.227Z,28.04
2023-04-14T02:48:18.265Z,28.05
2023-04-14T02:49:18.312Z,28.05
2023-04-14T02:50:18.334Z,28.04
2023-04-14T02:51:18.355Z,28.03
2023-04-14T02:52:18.393Z,28.04
2023-04-14T02:53:18.425Z,28.04
2023-04-14T02:54:18.474Z,28.04
2023-04-14T02:55:18.493Z,28.01
2023-04-14T02:56:18.528Z,28.03
2023-04-14T02:57:18.570Z,28.04
2023-04-14T02:58:18.593Z,27.94
2023-04-14T02:59:18.626Z,27.18
2023-04-14T03:00:18.664Z,26.75
2023-04-14T03:01:18.698Z,26.67
2023-04-14T03:02:18.896Z,26.46
2023-04-14T03:03:18.941Z,26.14
2023-04-14T03:04:18.942Z,26.06
2023-04-14T03:05:18.917Z,25.94
2023-04-14T03:06:19.018Z,25.81
2023-04-14T03:07:19.083Z,25.65
2023-04-14T03:08:19.153Z,25.61
2023-04-14T03:09:19.147Z,25.51
2023-04-14T03:10:19.165Z,25.39
2023-04-14T03:11:19.170Z,25.26
2023-04-14T03:12:19.200Z,25.17
2023-04-14T03:13:19.210Z,25.07
2023-04-14T03:14:19.212Z,25.06
2023-04-14T03:15:19.208Z,24.89
2023-04-14T03:16:19.255Z,24.85
2023-04-14T03:17:19.269Z,24.84
2023-04-14T03:18:19.236Z,24.73
2023-04-14T03:19:19.239Z,24.62
2023-04-14T03:20:19.241Z,24.62
2023-04-14T03:21:19.242Z,24.56
2023-04-14T03:22:19.254Z,24.47
2023-04-14T03:23:19.263Z,24.46
2023-04-14T03:24:19.292Z,24.45
2023-04-14T03:25:19.284Z,24.40
2023-04-14T03:26:19.289Z,24.37
2023-04-14T03:27:19.292Z,24.22
2023-04-14T03:28:19.334Z,24.29
2023-04-14T03:29:19.318Z,24.26
2023-04-14T03:30:19.324Z,24.14
2023-04-14T03:31:19.344Z,24.22
2023-04-14T03:32:19.389Z,24.21
2023-04-14T03:33:19.333Z,24.14
2023-04-14T03:34:19.344Z,24.06
2023-04-14T03:35:19.353Z,24.09
2023-04-14T03:36:19.375Z,24.06
2023-04-14T03:37:19.383Z,24.00
2023-04-14T03:38:19.393Z,23.99
2023-04-14T03:39:19.390Z,24.05
2023-04-14T03:40:19.406Z,24.02
2023-04-14T03:41:19.414Z,23.97
2023-04-14T03:42:19.418Z,24.00
2023-04-14T03:43:19.436Z,24.01
2023-04-14T03:44:19.456Z,23.98
2023-04-14T03:45:19.460Z,23.89
2023-04-14T03:46:19.536Z,23.93
2023-04-14T03:47:19.610Z,23.91
2023-04-14T03:48:19.619Z,23.92
2023-04-14T03:49:19.679Z,23.87
2023-04-14T03:50:19.745Z,23.88
2023-04-14T03:51:19.802Z,23.88
2023-04-14T03:52:19.869Z,23.82
2023-04-14T03:53:19.934Z,23.85
2023-04-14T03:54:19.995Z,23.90
2023-04-14T03:55:20.049Z,23.91
2023-04-14T03:56:20.117Z,23.86
2023-04-14T03:57:20.186Z,23.89
2023-04-14T03:58:20.239Z,23.87
2023-04-14T03:59:20.309Z,23.88
2023-04-14T04:00:20.387Z,23.85
2023-04-14T04:01:20.461Z,23.87
2023-04-14T04:02:20.567Z,23.89
2023-04-14T04:03:20.829Z,23.85
2023-04-14T04:04:20.755Z,23.83
2023-04-14T04:05:20.717Z,23.81
2023-04-14T04:06:20.788Z,23.84
2023-04-14T04:07:20.859Z,23.90
2023-04-14T04:08:20.872Z,23.84
2023-04-14T04:09:20.863Z,23.84
2023-04-14T04:10:20.891Z,23.83
2023-04-14T04:11:20.892Z,23.86
2023-04-14T04:12:20.881Z,23.82
2023-04-14T04:13:20.876Z,23.84
2023-04-14T04:14:20.898Z,23.85
2023-04-14T04:15:20.896Z,23.88
2023-04-14T04:16:20.995Z,23.85
2023-04-14T04:17:20.956Z,23.78
2023-04-14T04:18:20.980Z,23.82
2023-04-14T04:19:20.942Z,23.84
2023-04-14T04:20:20.950Z,23.79
2023-04-14T04:21:20.953Z,23.80
2023-04-14T04:22:20.961Z,23.84
2023-04-14T04:23:20.967Z,23.86
2023-04-14T04:24:20.962Z,23.89
2023-04-14T04:25:20.974Z,23.81
2023-04-14T04:26:20.981Z,23.80
2023-04-14T04:27:28.055Z,23.84
2023-04-14T04:28:22.027Z,23.82
2023-04-14T04:29:21.017Z,23.75
2023-04-14T04:30:21.041Z,23.76
2023-04-14T04:31:21.035Z,23.78
2023-04-14T04:32:21.195Z,23.75
2023-04-14T04:33:21.070Z,23.77
2023-04-14T04:34:21.077Z,23.74
2023-04-14T04:35:21.095Z,23.77
2023-04-14T04:36:21.167Z,23.80
2023-04-14T04:37:21.252Z,23.74
2023-04-14T04:38:21.296Z,23.72
2023-04-14T04:39:21.348Z,23.77
2023-04-14T04:40:21.391Z,23.77
2023-04-14T04:41:21.440Z,23.75
2023-04-14T04:42:21.482Z,23.77
2023-04-14T04:43:21.557Z,23.81
2023-04-14T04:44:21.630Z,23.79
2023-04-14T04:45:21.648Z,23.76
2023-04-14T04:46:21.797Z,23.74
2023-04-14T04:47:21.746Z,23.78
2023-04-14T04:48:21.776Z,23.79
2023-04-14T04:49:21.825Z,23.77
2023-04-14T04:50:21.882Z,23.77
2023-04-14T04:51:21.909Z,23.78
2023-04-14T04:52:21.946Z,23.79
2023-04-14T04:53:21.985Z,23.81
2023-04-14T04:54:22.026Z,23.77
2023-04-14T04:55:22.029Z,23.78
2023-04-14T04:56:22.071Z,23.85
2023-04-14T04:57:22.089Z,23.84
2023-04-14T04:58:22.132Z,23.79
2023-04-14T04:59:22.138Z,23.82
2023-04-14T05:00:22.176Z,23.80
2023-04-14T05:01:22.195Z,23.78
2023-04-14T05:02:22.290Z,23.76
2023-04-14T05:03:22.268Z,23.80
2023-04-14T05:04:22.327Z,23.86
2023-04-14T05:05:22.224Z,23.80
2023-04-14T05:06:22.243Z,23.79
2023-04-14T05:07:22.242Z,23.83
2023-04-14T05:08:22.263Z,23.86
2023-04-14T05:09:22.274Z,23.83
2023-04-14T05:10:22.279Z,23.85
2023-04-14T05:11:22.278Z,23.84
2023-04-14T05:12:22.300Z,23.88
2023-04-14T05:13:22.307Z,23.83
2023-04-14T05:14:22.327Z,23.88
2023-04-14T05:15:22.324Z,23.87
2023-04-14T05:16:22.410Z,23.89
2023-04-14T05:17:22.384Z,23.91
2023-04-14T05:18:22.351Z,23.90
2023-04-14T05:19:22.348Z,23.93
2023-04-14T05:20:22.354Z,23.94
2023-04-14T05:21:22.401Z,23.84
2023-04-14T05:22:22.372Z,23.88
2023-04-14T05:23:22.383Z,23.88
2023-04-14T05:24:22.380Z,24.01
2023-04-14T05:25:22.408Z,24.27
2023-04-14T05:26:44.700Z,24.36
2023-04-14T05:27:23.417Z,24.51
2023-04-14T05:28:22.430Z,24.60
2023-04-14T05:29:22.443Z,24.73
2023-04-14T05:30:22.438Z,24.77
2023-04-14T05:31:22.483Z,25.37
2023-04-14T05:32:22.568Z,25.60
2023-04-14T05:33:22.463Z,25.80
2023-04-14T05:34:22.476Z,26.10
2023-04-14T05:35:22.477Z,26.07
2023-04-14T05:36:22.480Z,26.29
2023-04-14T05:37:22.543Z,27.51
2023-04-14T05:38:22.512Z,27.81
2023-04-14T05:39:22.499Z,27.93
2023-04-14T05:40:22.537Z,27.83
2023-04-14T05:41:22.502Z,27.75
2023-04-14T05:42:22.516Z,28.33
2023-04-14T05:43:22.513Z,28.39
2023-04-14T05:44:22.555Z,28.86
2023-04-14T05:45:22.505Z,28.81
2023-04-14T05:46:22.519Z,28.86
2023-04-14T05:47:22.595Z,28.86
2023-04-14T05:48:22.541Z,28.81
2023-04-14T05:49:22.522Z,28.97
2023-04-14T05:50:22.514Z,28.58
2023-04-14T05:51:22.505Z,26.82
2023-04-14T05:52:22.515Z,25.49
2023-04-14T05:53:22.515Z,25.96
2023-04-14T05:54:22.526Z,25.94
2023-04-14T05:55:22.538Z,28.13
2023-04-14T05:56:22.552Z,28.47
2023-04-14T05:57:22.884Z,28.69
2023-04-14T05:58:22.586Z,28.49
2023-04-14T05:59:22.596Z,28.22
2023-04-14T06:00:22.598Z,28.12
2023-04-14T06:01:22.623Z,28.21
2023-04-14T06:02:22.773Z,28.45
2023-04-14T06:03:22.711Z,28.32
2023-04-14T06:04:22.745Z,28.00
2023-04-14T06:05:22.688Z,27.89
2023-04-14T06:06:22.664Z,28.11
2023-04-14T06:07:22.670Z,27.70
2023-04-14T06:08:22.685Z,27.80
2023-04-14T06:09:22.673Z,27.91
2023-04-14T06:10:22.674Z,27.06
2023-04-14T06:11:22.673Z,27.59
2023-04-14T06:12:22.767Z,27.36
2023-04-14T06:13:22.820Z,27.36
2023-04-14T06:14:22.714Z,27.47
2023-04-14T06:15:22.720Z,27.12
2023-04-14T06:16:22.740Z,27.05
2023-04-14T06:17:22.835Z,27.13
2023-04-14T06:18:22.721Z,26.91
2023-04-14T06:19:22.752Z,27.00
2023-04-14T06:20:22.744Z,26.78
2023-04-14T06:21:22.786Z,26.80
2023-04-14T06:22:22.729Z,26.77
2023-04-14T06:23:22.731Z,26.87
2023-04-14T06:24:22.738Z,26.86
2023-04-14T06:25:22.737Z,26.81
2023-04-14T06:26:22.741Z,26.79
2023-04-14T06:27:22.757Z,26.79
2023-04-14T06:28:22.821Z,26.79
2023-04-14T06:29:22.882Z,26.48
2023-04-14T06:30:22.955Z,26.69
2023-04-14T06:31:23.005Z,26.68
2023-04-14T06:32:23.207Z,26.58
2023-04-14T06:33:23.142Z,26.38
2023-04-14T06:34:23.205Z,26.60
2023-04-14T06:35:32.542Z,26.63
2023-04-14T06:36:24.264Z,26.61
2023-04-14T06:37:23.256Z,26.50
2023-04-14T06:38:23.255Z,26.10
2023-04-14T06:39:23.271Z,26.28
2023-04-14T06:40:23.260Z,26.16
2023-04-14T06:41:23.273Z,26.66
2023-04-14T06:42:23.268Z,26.77
2023-04-14T06:43:23.266Z,27.02
2023-04-14T06:44:23.265Z,26.92
2023-04-14T06:45:23.278Z,26.98
2023-04-14T06:46:23.386Z,26.74
2023-04-14T06:47:23.341Z,26.82
2023-04-14T06:48:23.366Z,26.82
2023-04-14T06:49:23.387Z,26.84
2023-04-14T06:50:23.411Z,25.25
2023-04-14T06:51:23.416Z,25.97
2023-04-14T06:52:23.417Z,25.13
2023-04-14T06:53:23.457Z,24.72
2023-04-14T06:54:23.439Z,24.96
2023-04-14T06:55:23.438Z,25.03
2023-04-14T06:56:23.439Z,25.23
2023-04-14T06:57:23.444Z,25.02
2023-04-14T06:58:23.505Z,25.01
2023-04-14T06:59:23.446Z,25.02
2023-04-14T07:00:23.463Z,25.22
2023-04-14T07:01:23.510Z,25.31
2023-04-14T07:02:23.530Z,25.21
2023-04-14T07:03:23.483Z,25.06
2023-04-14T07:04:23.489Z,25.19
2023-04-14T07:05:23.455Z,24.92
2023-04-14T07:06:23.451Z,24.99
2023-04-14T07:07:23.462Z,24.77
2023-04-14T07:08:23.470Z,24.83
2023-04-14T07:09:23.514Z,24.94
2023-04-14T07:10:23.474Z,24.97
2023-04-14T07:11:23.475Z,24.97
2023-04-14T07:12:23.480Z,24.86
2023-04-14T07:13:23.485Z,24.75
2023-04-14T07:14:23.489Z,24.76
2023-04-14T07:15:23.587Z,24.93
2023-04-14T07:16:23.747Z,24.78
2023-04-14T07:17:23.524Z,24.93
2023-04-14T07:18:23.506Z,24.91
2023-04-14T07:19:23.511Z,24.87
2023-04-14T07:20:23.521Z,24.92
2023-04-14T07:21:23.525Z,24.92
2023-04-14T07:22:23.500Z,25.01
2023-04-14T07:23:23.520Z,25.10
2023-04-14T07:24:23.577Z,25.01
2023-04-14T07:25:23.516Z,25.09
2023-04-14T07:26:23.519Z,24.61
2023-04-14T07:27:23.522Z,25.02
2023-04-14T07:28:23.528Z,25.15
2023-04-14T07:29:23.551Z,25.21
2023-04-14T07:30:23.524Z,24.70
2023-04-14T07:31:23.550Z,24.83
2023-04-14T07:32:23.561Z,24.96
2023-04-14T07:33:23.532Z,25.16
2023-04-14T07:34:23.530Z,25.25
2023-04-14T07:35:23.535Z,25.13
2023-04-14T07:36:23.537Z,24.90
2023-04-14T07:37:23.523Z,25.59
2023-04-14T07:38:23.535Z,25.96
2023-04-14T07:39:23.777Z,25.88
2023-04-14T07:40:23.544Z,26.12
2023-04-14T07:41:23.568Z,26.43
2023-04-14T07:42:23.547Z,25.74
2023-04-14T07:43:23.571Z,24.24
2023-04-14T07:44:23.615Z,25.80
2023-04-14T07:45:23.660Z,26.11
2023-04-14T07:46:23.765Z,26.40
2023-04-14T07:47:23.783Z,26.57
2023-04-14T07:48:23.780Z,26.60
2023-04-14T07:49:23.800Z,26.55
2023-04-14T07:50:23.857Z,26.69
2023-04-14T07:51:23.870Z,26.91
2023-04-14T07:52:23.865Z,26.99
2023-04-14T07:53:23.868Z,26.90
2023-04-14T07:54:23.910Z,27.00
2023-04-14T07:55:25.501Z,26.96
2023-04-14T07:56:23.898Z,26.93
2023-04-14T07:57:23.900Z,27.02
2023-04-14T07:58:25.630Z,27.02
2023-04-14T07:59:23.906Z,27.07
2023-04-14T08:00:23.910Z,26.99
2023-04-14T08:01:23.907Z,27.02
2023-04-14T08:02:24.067Z,26.99
2023-04-14T08:03:24.086Z,27.01
2023-04-14T08:04:23.986Z,26.95
2023-04-14T08:05:23.967Z,27.04
2023-04-14T08:06:23.919Z,27.02
2023-04-14T08:07:23.913Z,26.97
2023-04-14T08:08:23.918Z,27.01
2023-04-14T08:09:23.930Z,27.07
2023-04-14T08:10:23.919Z,27.08
2023-04-14T08:11:23.919Z,27.09
2023-04-14T08:12:23.919Z,27.11
2023-04-14T08:13:23.921Z,27.04
2023-04-14T08:14:23.906Z,27.02
2023-04-14T08:15:23.909Z,27.00
2023-04-14T08:16:23.968Z,26.97
2023-04-14T08:17:23.953Z,26.91
2023-04-14T08:18:23.906Z,26.91
2023-04-14T08:19:23.878Z,26.89
2023-04-14T08:20:23.888Z,26.87
2023-04-14T08:21:23.874Z,26.86
2023-04-14T08:22:23.861Z,26.83
2023-04-14T08:23:23.852Z,26.83
2023-04-14T08:24:23.855Z,26.82
2023-04-14T08:25:23.859Z,26.84
2023-04-14T08:26:23.840Z,26.85
2023-04-14T08:27:23.838Z,26.80
2023-04-14T08:28:23.826Z,26.75
2023-04-14T08:29:23.813Z,27.11
2023-04-14T08:30:23.927Z,27.01
2023-04-14T08:31:23.844Z,26.79
2023-04-14T08:32:23.829Z,26.52
2023-04-14T08:33:23.878Z,26.39
2023-04-14T08:34:28.237Z,26.24
2023-04-14T08:35:37.706Z,25.93
2023-04-14T08:36:24.911Z,25.85
2023-04-14T08:37:23.897Z,25.84
2023-04-14T08:38:23.890Z,25.63
2023-04-14T08:39:23.877Z,25.61
2023-04-14T08:40:23.901Z,25.48
2023-04-14T08:41:23.862Z,25.61
2023-04-14T08:42:23.862Z,25.59
2023-04-14T08:43:23.847Z,25.55
2023-04-14T08:44:23.850Z,25.51
2023-04-14T08:45:23.951Z,25.54
2023-04-14T08:46:24.038Z,25.67
2023-04-14T08:47:24.047Z,26.30
2023-04-14T08:48:25.641Z,25.82
2023-04-14T08:49:24.116Z,25.91
2023-04-14T08:50:24.184Z,25.91
2023-04-14T08:51:24.236Z,25.93
2023-04-14T08:52:24.274Z,25.90
2023-04-14T08:53:24.271Z,25.73
2023-04-14T08:54:24.269Z,25.67
2023-04-14T08:55:24.270Z,25.41
2023-04-14T08:56:24.235Z,25.32
2023-04-14T08:57:24.229Z,25.08
2023-04-14T08:58:24.232Z,24.95
2023-04-14T08:59:24.206Z,24.81
2023-04-14T09:00:24.206Z,24.75
2023-04-14T09:01:24.245Z,24.72
2023-04-14T09:02:24.311Z,24.58
2023-04-14T09:03:24.341Z,24.53
2023-04-14T09:04:24.272Z,24.50
2023-04-14T09:05:24.153Z,24.42
2023-04-14T09:06:24.146Z,24.35
2023-04-14T09:07:24.147Z,24.29
2023-04-14T09:08:24.125Z,24.30
2023-04-14T09:09:24.167Z,24.22
2023-04-14T09:10:24.229Z,24.21
2023-04-14T09:11:24.291Z,24.28
2023-04-14T09:12:24.368Z,24.30
2023-04-14T09:13:24.389Z,24.33
2023-04-14T09:14:24.435Z,24.36
2023-04-14T09:15:24.501Z,24.33
2023-04-14T09:16:24.620Z,24.32
2023-04-14T09:17:24.646Z,24.21
2023-04-14T09:18:24.676Z,24.23
2023-04-14T09:19:24.755Z,24.17
2023-04-14T09:20:38.851Z,24.23
2023-04-14T09:21:50.968Z,24.22
2023-04-14T09:22:25.711Z,24.16
2023-04-14T09:23:24.721Z,24.12
2023-04-14T09:24:24.701Z,24.10
2023-04-14T09:25:24.725Z,24.11
2023-04-14T09:26:24.704Z,24.14
2023-04-14T09:27:24.710Z,24.15
2023-04-14T09:28:24.689Z,24.12
2023-04-14T09:29:24.674Z,24.13
2023-04-14T09:30:24.695Z,24.13
2023-04-14T09:31:24.712Z,24.13
2023-04-14T09:32:24.666Z,24.12
2023-04-14T09:33:24.672Z,24.13
2023-04-14T09:34:24.712Z,24.12
2023-04-14T09:35:24.654Z,24.10
2023-04-14T09:36:24.638Z,24.13
2023-04-14T09:37:24.647Z,24.13
2023-04-14T09:38:24.631Z,24.14
2023-04-14T09:39:24.626Z,24.17
2023-04-14T09:40:24.616Z,24.40
2023-04-14T09:41:24.613Z,24.66
2023-04-14T09:42:24.599Z,25.11
2023-04-14T09:43:24.593Z,25.65
2023-04-14T09:44:24.594Z,26.26
2023-04-14T09:45:24.578Z,24.73
2023-04-14T09:46:24.625Z,23.73
2023-04-14T09:47:24.650Z,24.64
2023-04-14T09:48:24.550Z,24.34
2023-04-14T09:49:24.564Z,25.84
2023-04-14T09:50:24.574Z,27.06
2023-04-14T09:51:24.575Z,27.30
2023-04-14T09:52:24.569Z,27.67
2023-04-14T09:53:24.584Z,27.16
2023-04-14T09:54:24.602Z,27.47
2023-04-14T09:55:24.648Z,27.87
2023-04-14T09:56:24.720Z,28.04
2023-04-14T09:57:24.734Z,28.21
2023-04-14T09:58:27.837Z,28.41
2023-04-14T09:59:24.758Z,28.17
2023-04-14T10:00:24.797Z,28.36
2023-04-14T10:01:24.783Z,28.21
2023-04-14T10:02:24.841Z,25.37
2023-04-14T10:03:25.007Z,25.89
2023-04-14T10:04:24.785Z,25.52
2023-04-14T10:05:24.764Z,26.53
2023-04-14T10:06:24.781Z,26.66
2023-04-14T10:07:24.764Z,27.48
2023-04-14T10:08:24.791Z,27.45
2023-04-14T10:09:24.790Z,27.49
2023-04-14T10:10:24.829Z,27.46
2023-04-14T10:11:24.803Z,27.32
2023-04-14T10:12:24.795Z,27.74
2023-04-14T10:13:24.818Z,28.27
2023-04-14T10:14:24.800Z,28.28
2023-04-14T10:15:24.818Z,28.45
2023-04-14T10:16:24.868Z,28.20
2023-04-14T10:17:25.542Z,28.04
2023-04-14T10:18:24.806Z,28.38
2023-04-14T10:19:24.810Z,28.52
2023-04-14T10:20:24.833Z,28.69
2023-04-14T10:21:24.823Z,28.74
2023-04-14T10:22:24.797Z,28.71
2023-04-14T10:23:24.793Z,28.87
2023-04-14T10:24:24.804Z,28.80
2023-04-14T10:25:24.793Z,28.89
2023-04-14T10:26:24.822Z,28.73
2023-04-14T10:27:24.791Z,28.54
2023-04-14T10:28:24.778Z,28.68
2023-04-14T10:29:24.771Z,28.51
2023-04-14T10:30:24.808Z,28.78
2023-04-14T10:31:24.798Z,28.66
2023-04-14T10:32:24.789Z,28.82
2023-04-14T10:33:24.763Z,28.81
2023-04-14T10:34:24.774Z,28.94
2023-04-14T10:35:24.731Z,29.14
2023-04-14T10:36:24.748Z,29.06
2023-04-14T10:37:24.751Z,29.20
2023-04-14T10:38:24.781Z,29.13
2023-04-14T10:39:24.782Z,28.65
2023-04-14T10:40:24.788Z,28.44
2023-04-14T10:41:24.824Z,28.68
2023-04-14T10:42:24.891Z,28.36
2023-04-14T10:43:24.964Z,28.48
2023-04-14T10:44:25.003Z,28.33
2023-04-14T10:45:25.045Z,28.33
2023-04-14T10:46:25.115Z,28.30
2023-04-14T10:47:25.217Z,28.08
2023-04-14T10:48:25.125Z,27.72
2023-04-14T10:49:25.154Z,27.44
2023-04-14T10:50:25.179Z,27.87
2023-04-14T10:51:25.219Z,28.03
2023-04-14T10:52:25.227Z,27.71
2023-04-14T10:53:25.228Z,27.75
2023-04-14T10:54:25.252Z,28.10
2023-04-14T10:55:25.304Z,28.28
2023-04-14T10:56:25.308Z,27.99
2023-04-14T10:57:25.339Z,28.02
2023-04-14T10:58:25.352Z,28.53
2023-04-14T10:59:25.372Z,28.44
2023-04-14T11:00:25.404Z,28.31
2023-04-14T11:01:25.422Z,28.09
2023-04-14T11:02:25.597Z,27.98
2023-04-14T11:03:28.175Z,27.91
2023-04-14T11:04:25.506Z,27.80
2023-04-14T11:05:25.408Z,27.51
2023-04-14T11:06:25.416Z,27.49
2023-04-14T11:07:25.409Z,27.53
2023-04-14T11:08:25.397Z,27.56
2023-04-14T11:09:25.406Z,27.37
2023-04-14T11:10:25.388Z,27.68
2023-04-14T11:11:25.376Z,27.36
2023-04-14T11:12:25.355Z,27.50
2023-04-14T11:13:25.356Z,27.02
2023-04-14T11:14:25.488Z,26.92
2023-04-14T11:15:25.336Z,27.15
2023-04-14T11:16:25.343Z,27.39
2023-04-14T11:17:25.351Z,27.34
2023-04-14T11:18:25.339Z,27.45
2023-04-14T11:19:26.123Z,27.62
2023-04-14T11:20:25.311Z,27.84
2023-04-14T11:21:25.298Z,27.29
2023-04-14T11:22:25.281Z,27.77
2023-04-14T11:23:25.275Z,27.55
2023-04-14T11:24:25.304Z,27.38
2023-04-14T11:25:25.396Z,27.90
2023-04-14T11:26:25.256Z,27.66
2023-04-14T11:27:25.242Z,26.79
2023-04-14T11:28:25.226Z,26.84
2023-04-14T11:29:25.212Z,26.73
2023-04-14T11:30:25.214Z,26.85
2023-04-14T11:31:25.229Z,26.68
2023-04-14T11:32:25.307Z,26.64
2023-04-14T11:33:25.199Z,26.58
2023-04-14T11:34:25.172Z,26.50
2023-04-14T11:35:25.164Z,26.41
2023-04-14T11:36:25.199Z,26.29
2023-04-14T11:37:25.156Z,26.07
2023-04-14T11:38:25.147Z,25.83
2023-04-14T11:39:25.127Z,25.69
2023-04-14T11:40:25.140Z,25.44
2023-04-14T11:41:25.119Z,25.41
2023-04-14T11:42:25.115Z,25.42
2023-04-14T11:43:25.099Z,25.13
2023-04-14T11:44:25.104Z,25.07
2023-04-14T11:45:25.080Z,24.98
2023-04-14T11:46:25.165Z,24.81
2023-04-14T11:47:25.091Z,24.91
2023-04-14T11:48:25.053Z,24.79
2023-04-14T11:49:25.040Z,24.74
2023-04-14T11:50:25.039Z,24.77
2023-04-14T11:51:25.084Z,24.77
2023-04-14T11:52:25.025Z,24.87
2023-04-14T11:53:25.044Z,24.74
2023-04-14T11:54:25.108Z,24.64
2023-04-14T11:55:25.134Z,24.69
2023-04-14T11:56:25.136Z,24.58
2023-04-14T11:57:25.116Z,24.54
2023-04-14T11:58:25.120Z,24.50
2023-04-14T11:59:25.138Z,24.29
2023-04-14T12:00:25.110Z,24.40
2023-04-14T12:01:25.106Z,24.64
2023-04-14T12:02:25.160Z,24.83
2023-04-14T12:03:25.113Z,24.55
2023-04-14T12:04:25.285Z,24.81
2023-04-14T12:05:25.034Z,24.66
2023-04-14T12:06:25.029Z,24.71
2023-04-14T12:07:25.017Z,24.75
2023-04-14T12:08:25.007Z,24.72
2023-04-14T12:09:24.987Z,24.78
2023-04-14T12:10:24.991Z,24.89
2023-04-14T12:11:25.037Z,25.00
2023-04-14T12:12:26.001Z,25.08
2023-04-14T12:13:25.033Z,25.11
2023-04-14T12:14:24.995Z,25.16
2023-04-14T12:15:24.988Z,24.92
2023-04-14T12:16:25.022Z,24.51
2023-04-14T12:17:24.995Z,24.99
2023-04-14T12:18:24.962Z,25.70
2023-04-14T12:19:24.952Z,25.63
2023-04-14T12:20:24.923Z,25.66
2023-04-14T12:21:24.905Z,25.63
2023-04-14T12:22:24.907Z,25.54
2023-04-14T12:23:24.874Z,25.52
2023-04-14T12:24:24.862Z,25.40
2023-04-14T12:25:24.838Z,25.35
2023-04-14T12:26:24.828Z,25.26
2023-04-14T12:27:24.835Z,25.16
2023-04-14T12:28:24.831Z,25.07
2023-04-14T12:29:24.801Z,24.96
2023-04-14T12:30:24.785Z,24.86
2023-04-14T12:31:24.800Z,24.87
2023-04-14T12:32:24.812Z,24.90
2023-04-14T12:33:24.756Z,24.87
2023-04-14T12:34:24.720Z,24.82
2023-04-14T12:35:24.704Z,31.64
2023-04-14T12:36:29.864Z,30.10
2023-04-14T12:37:25.696Z,33.77
2023-04-14T12:38:24.675Z,29.54
2023-04-14T12:39:24.669Z,29.05
2023-04-14T12:40:24.643Z,28.21
2023-04-14T12:41:24.602Z,28.03
2023-04-14T12:42:24.601Z,28.12
2023-04-14T12:43:24.569Z,28.05
2023-04-14T12:44:24.566Z,28.06
2023-04-14T12:45:24.558Z,27.94
2023-04-14T12:46:24.555Z,27.83
2023-04-14T12:47:24.535Z,27.73
2023-04-14T12:48:24.514Z,27.64
2023-04-14T12:49:24.480Z,27.56
2023-04-14T12:50:24.462Z,27.46
2023-04-14T12:51:24.442Z,27.37
2023-04-14T12:52:24.436Z,27.25